sensor_id;sensor_type;location;lat;lon;timestamp;P1;durP1;ratioP1;P2;durP2;ratioP2
70838;SDS011;58464;52.298;4.852;2023-02-28T00:01:31;6.47;;;1.67;;
70838;SDS011;58464;52.298;4.852;2023-02-28T00:03:57;7.65;;;2.15;;
70838;SDS011;58464;52.298;4.852;2023-02-28T00:06:22;6.38;;;1.65;;
70838;SDS011;58464;52.298;4.852;2023-02-28T00:08:50;3.83;;;1.55;;
70838;SDS011;58464;52.298;4.852;2023-02-28T00:11:15;12.13;;;2.13;;
70838;SDS011;58464;52.298;4.852;2023-02-28T00:13:42;11.65;;;2.63;;
70838;SDS011;58464;52.298;4.852;2023-02-28T00:16:09;3.58;;;1.50;;
70838;SDS011;58464;52.298;4.852;2023-02-28T00:18:35;11.75;;;2.70;;
70838;SDS011;58464;52.298;4.852;2023-02-28T00:21:00;8.20;;;2.30;;
70838;SDS011;58464;52.298;4.852;2023-02-28T00:23:26;6.22;;;1.88;;
70838;SDS011;58464;52.298;4.852;2023-02-28T00:25:51;6.25;;;2.15;;
70838;SDS011;58464;52.298;4.852;2023-02-28T00:28:17;7.53;;;2.00;;
70838;SDS011;58464;52.298;4.852;2023-02-28T00:30:43;7.80;;;2.28;;
70838;SDS011;58464;52.298;4.852;2023-02-28T00:33:08;13.35;;;2.67;;
70838;SDS011;58464;52.298;4.852;2023-02-28T00:35:34;10.82;;;2.97;;
70838;SDS011;58464;52.298;4.852;2023-02-28T00:38:00;6.15;;;2.10;;
70838;SDS011;58464;52.298;4.852;2023-02-28T00:40:25;10.13;;;2.83;;
70838;SDS011;58464;52.298;4.852;2023-02-28T00:42:51;5.43;;;2.53;;
70838;SDS011;58464;52.298;4.852;2023-02-28T00:45:16;9.65;;;3.10;;
70838;SDS011;58464;52.298;4.852;2023-02-28T00:47:42;8.45;;;2.92;;
70838;SDS011;58464;52.298;4.852;2023-02-28T00:50:07;8.00;;;2.10;;
70838;SDS011;58464;52.298;4.852;2023-02-28T00:52:33;7.65;;;1.92;;
70838;SDS011;58464;52.298;4.852;2023-02-28T00:54:58;4.32;;;1.52;;
70838;SDS011;58464;52.298;4.852;2023-02-28T00:57:24;9.70;;;2.67;;
70838;SDS011;58464;52.298;4.852;2023-02-28T00:59:49;13.97;;;2.83;;
70838;SDS011;58464;52.298;4.852;2023-02-28T01:02:14;14.88;;;3.15;;
70838;SDS011;58464;52.298;4.852;2023-02-28T01:04:40;6.13;;;2.35;;
70838;SDS011;58464;52.298;4.852;2023-02-28T01:07:05;7.17;;;2.20;;
70838;SDS011;58464;52.298;4.852;2023-02-28T01:09:30;11.75;;;2.60;;
70838;SDS011;58464;52.298;4.852;2023-02-28T01:11:55;6.23;;;1.90;;
70838;SDS011;58464;52.298;4.852;2023-02-28T01:14:21;8.73;;;1.88;;
70838;SDS011;58464;52.298;4.852;2023-02-28T01:16:46;7.40;;;2.67;;
70838;SDS011;58464;52.298;4.852;2023-02-28T01:19:11;7.43;;;2.75;;
70838;SDS011;58464;52.298;4.852;2023-02-28T01:21:37;6.85;;;2.08;;
70838;SDS011;58464;52.298;4.852;2023-02-28T01:24:03;8.75;;;2.10;;
70838;SDS011;58464;52.298;4.852;2023-02-28T01:26:28;10.30;;;2.25;;
70838;SDS011;58464;52.298;4.852;2023-02-28T01:28:54;7.50;;;2.63;;
70838;SDS011;58464;52.298;4.852;2023-02-28T01:31:19;12.70;;;2.47;;
70838;SDS011;58464;52.298;4.852;2023-02-28T01:33:45;5.57;;;2.47;;
70838;SDS011;58464;52.298;4.852;2023-02-28T01:36:14;6.65;;;2.22;;
70838;SDS011;58464;52.298;4.852;2023-02-28T01:38:41;11.25;;;2.38;;
70838;SDS011;58464;52.298;4.852;2023-02-28T01:41:07;11.63;;;2.80;;
70838;SDS011;58464;52.298;4.852;2023-02-28T01:43:52;6.40;;;2.50;;
70838;SDS011;58464;52.298;4.852;2023-02-28T01:48:43;10.10;;;2.35;;
70838;SDS011;58464;52.298;4.852;2023-02-28T01:51:12;11.52;;;2.67;;
70838;SDS011;58464;52.298;4.852;2023-02-28T01:53:42;7.53;;;2.45;;
70838;SDS011;58464;52.298;4.852;2023-02-28T01:56:09;10.43;;;1.83;;
70838;SDS011;58464;52.298;4.852;2023-02-28T01:58:35;9.32;;;2.88;;
70838;SDS011;58464;52.298;4.852;2023-02-28T02:01:01;8.57;;;2.30;;
70838;SDS011;58464;52.298;4.852;2023-02-28T02:03:27;9.40;;;2.50;;
70838;SDS011;58464;52.298;4.852;2023-02-28T02:05:54;11.05;;;2.60;;
70838;SDS011;58464;52.298;4.852;2023-02-28T02:08:20;7.47;;;2.22;;
70838;SDS011;58464;52.298;4.852;2023-02-28T02:10:49;8.38;;;2.33;;
70838;SDS011;58464;52.298;4.852;2023-02-28T02:15:48;9.82;;;2.58;;
70838;SDS011;58464;52.298;4.852;2023-02-28T02:21:27;5.35;;;2.15;;
70838;SDS011;58464;52.298;4.852;2023-02-28T02:26:39;3.23;;;1.80;;
70838;SDS011;58464;52.298;4.852;2023-02-28T02:31:48;3.47;;;2.00;;
70838;SDS011;58464;52.298;4.852;2023-02-28T02:36:45;4.65;;;2.00;;
70838;SDS011;58464;52.298;4.852;2023-02-28T02:42:01;12.40;;;2.88;;
70838;SDS011;58464;52.298;4.852;2023-02-28T02:44:31;11.57;;;2.65;;
70838;SDS011;58464;52.298;4.852;2023-02-28T02:47:01;9.45;;;2.47;;
70838;SDS011;58464;52.298;4.852;2023-02-28T02:49:30;14.18;;;2.80;;
70838;SDS011;58464;52.298;4.852;2023-02-28T02:51:56;4.03;;;2.13;;
70838;SDS011;58464;52.298;4.852;2023-02-28T02:54:23;10.35;;;2.67;;
70838;SDS011;58464;52.298;4.852;2023-02-28T02:56:53;10.65;;;2.58;;
70838;SDS011;58464;52.298;4.852;2023-02-28T02:59:20;12.77;;;2.85;;
70838;SDS011;58464;52.298;4.852;2023-02-28T03:01:52;14.25;;;2.53;;
70838;SDS011;58464;52.298;4.852;2023-02-28T03:04:19;6.60;;;2.70;;
70838;SDS011;58464;52.298;4.852;2023-02-28T03:06:45;14.00;;;3.42;;
70838;SDS011;58464;52.298;4.852;2023-02-28T03:09:10;13.27;;;3.42;;
70838;SDS011;58464;52.298;4.852;2023-02-28T03:11:35;13.93;;;3.90;;
70838;SDS011;58464;52.298;4.852;2023-02-28T03:16:36;12.80;;;3.67;;
70838;SDS011;58464;52.298;4.852;2023-02-28T03:21:53;11.90;;;3.28;;
70838;SDS011;58464;52.298;4.852;2023-02-28T03:27:13;8.38;;;3.03;;
70838;SDS011;58464;52.298;4.852;2023-02-28T03:29:51;11.30;;;2.88;;
70838;SDS011;58464;52.298;4.852;2023-02-28T03:32:21;7.07;;;2.45;;
70838;SDS011;58464;52.298;4.852;2023-02-28T03:34:50;10.52;;;3.28;;
70838;SDS011;58464;52.298;4.852;2023-02-28T03:37:19;6.75;;;3.17;;
70838;SDS011;58464;52.298;4.852;2023-02-28T03:39:47;9.60;;;2.80;;
70838;SDS011;58464;52.298;4.852;2023-02-28T03:42:23;11.85;;;3.22;;
70838;SDS011;58464;52.298;4.852;2023-02-28T03:44:52;11.73;;;2.55;;
70838;SDS011;58464;52.298;4.852;2023-02-28T03:47:21;9.80;;;2.67;;
70838;SDS011;58464;52.298;4.852;2023-02-28T03:49:53;9.30;;;2.38;;
70838;SDS011;58464;52.298;4.852;2023-02-28T03:52:19;7.65;;;2.50;;
70838;SDS011;58464;52.298;4.852;2023-02-28T03:54:50;6.25;;;2.47;;
70838;SDS011;58464;52.298;4.852;2023-02-28T03:57:26;6.25;;;2.50;;
70838;SDS011;58464;52.298;4.852;2023-02-28T03:59:57;7.80;;;2.33;;
70838;SDS011;58464;52.298;4.852;2023-02-28T04:02:24;3.00;;;1.75;;
70838;SDS011;58464;52.298;4.852;2023-02-28T04:04:49;4.50;;;1.95;;
70838;SDS011;58464;52.298;4.852;2023-02-28T04:07:17;3.92;;;2.22;;
70838;SDS011;58464;52.298;4.852;2023-02-28T04:09:42;5.97;;;2.60;;
70838;SDS011;58464;52.298;4.852;2023-02-28T04:12:08;5.20;;;1.90;;
70838;SDS011;58464;52.298;4.852;2023-02-28T04:14:33;4.53;;;1.60;;
70838;SDS011;58464;52.298;4.852;2023-02-28T04:16:58;2.73;;;1.57;;
70838;SDS011;58464;52.298;4.852;2023-02-28T04:19:23;4.63;;;1.42;;
70838;SDS011;58464;52.298;4.852;2023-02-28T04:21:50;9.35;;;1.70;;
70838;SDS011;58464;52.298;4.852;2023-02-28T04:24:16;4.78;;;1.67;;
70838;SDS011;58464;52.298;4.852;2023-02-28T04:26:43;8.57;;;1.85;;
70838;SDS011;58464;52.298;4.852;2023-02-28T04:29:09;8.77;;;2.03;;
70838;SDS011;58464;52.298;4.852;2023-02-28T04:31:34;4.90;;;1.88;;
70838;SDS011;58464;52.298;4.852;2023-02-28T04:34:00;6.40;;;2.13;;
70838;SDS011;58464;52.298;4.852;2023-02-28T04:36:26;6.05;;;2.00;;
70838;SDS011;58464;52.298;4.852;2023-02-28T04:38:51;8.07;;;2.03;;
70838;SDS011;58464;52.298;4.852;2023-02-28T04:41:17;6.30;;;2.35;;
70838;SDS011;58464;52.298;4.852;2023-02-28T04:43:42;4.93;;;2.20;;
70838;SDS011;58464;52.298;4.852;2023-02-28T04:46:07;5.80;;;2.45;;
70838;SDS011;58464;52.298;4.852;2023-02-28T04:48:34;5.18;;;2.50;;
70838;SDS011;58464;52.298;4.852;2023-02-28T04:51:00;5.03;;;1.90;;
70838;SDS011;58464;52.298;4.852;2023-02-28T04:53:25;7.63;;;2.20;;
70838;SDS011;58464;52.298;4.852;2023-02-28T04:55:52;4.43;;;2.33;;
70838;SDS011;58464;52.298;4.852;2023-02-28T04:58:17;4.90;;;2.33;;
70838;SDS011;58464;52.298;4.852;2023-02-28T05:00:42;3.75;;;2.15;;
70838;SDS011;58464;52.298;4.852;2023-02-28T05:03:08;7.65;;;2.50;;
70838;SDS011;58464;52.298;4.852;2023-02-28T05:05:33;4.82;;;2.10;;
70838;SDS011;58464;52.298;4.852;2023-02-28T05:07:58;9.80;;;2.30;;
70838;SDS011;58464;52.298;4.852;2023-02-28T05:10:24;11.07;;;2.45;;
70838;SDS011;58464;52.298;4.852;2023-02-28T05:12:49;5.68;;;2.25;;
70838;SDS011;58464;52.298;4.852;2023-02-28T05:15:15;3.97;;;2.38;;
70838;SDS011;58464;52.298;4.852;2023-02-28T05:17:41;9.80;;;2.50;;
70838;SDS011;58464;52.298;4.852;2023-02-28T05:20:07;6.35;;;2.40;;
70838;SDS011;58464;52.298;4.852;2023-02-28T05:22:33;5.43;;;2.55;;
70838;SDS011;58464;52.298;4.852;2023-02-28T05:24:59;10.25;;;3.22;;
70838;SDS011;58464;52.298;4.852;2023-02-28T05:27:24;4.17;;;2.20;;
70838;SDS011;58464;52.298;4.852;2023-02-28T05:29:50;7.68;;;2.72;;
70838;SDS011;58464;52.298;4.852;2023-02-28T05:32:15;3.88;;;2.55;;
70838;SDS011;58464;52.298;4.852;2023-02-28T05:34:40;5.70;;;3.20;;
70838;SDS011;58464;52.298;4.852;2023-02-28T05:37:07;8.10;;;2.80;;
70838;SDS011;58464;52.298;4.852;2023-02-28T05:39:35;6.18;;;2.67;;
70838;SDS011;58464;52.298;4.852;2023-02-28T05:42:01;14.10;;;3.42;;
70838;SDS011;58464;52.298;4.852;2023-02-28T05:44:26;4.70;;;2.70;;
70838;SDS011;58464;52.298;4.852;2023-02-28T05:46:52;10.70;;;3.05;;
70838;SDS011;58464;52.298;4.852;2023-02-28T05:49:17;7.60;;;3.17;;
70838;SDS011;58464;52.298;4.852;2023-02-28T05:51:43;13.10;;;2.95;;
70838;SDS011;58464;52.298;4.852;2023-02-28T05:54:08;6.30;;;3.15;;
70838;SDS011;58464;52.298;4.852;2023-02-28T05:56:33;5.15;;;2.90;;
70838;SDS011;58464;52.298;4.852;2023-02-28T05:59:04;8.68;;;3.22;;
70838;SDS011;58464;52.298;4.852;2023-02-28T06:01:34;8.88;;;4.00;;
70838;SDS011;58464;52.298;4.852;2023-02-28T06:04:00;8.43;;;3.58;;
70838;SDS011;58464;52.298;4.852;2023-02-28T06:06:25;7.30;;;3.58;;
70838;SDS011;58464;52.298;4.852;2023-02-28T06:08:51;6.63;;;4.00;;
70838;SDS011;58464;52.298;4.852;2023-02-28T06:11:16;9.50;;;4.00;;
70838;SDS011;58464;52.298;4.852;2023-02-28T06:13:41;9.45;;;4.43;;
70838;SDS011;58464;52.298;4.852;2023-02-28T06:16:07;8.27;;;4.40;;
70838;SDS011;58464;52.298;4.852;2023-02-28T06:18:33;15.63;;;5.07;;
70838;SDS011;58464;52.298;4.852;2023-02-28T06:20:58;15.63;;;4.63;;
70838;SDS011;58464;52.298;4.852;2023-02-28T06:23:23;7.43;;;4.30;;
70838;SDS011;58464;52.298;4.852;2023-02-28T06:25:48;8.70;;;4.90;;
70838;SDS011;58464;52.298;4.852;2023-02-28T06:28:14;8.60;;;4.93;;
70838;SDS011;58464;52.298;4.852;2023-02-28T06:30:39;9.45;;;4.20;;
70838;SDS011;58464;52.298;4.852;2023-02-28T06:33:05;12.93;;;5.17;;
70838;SDS011;58464;52.298;4.852;2023-02-28T06:35:30;15.97;;;5.10;;
70838;SDS011;58464;52.298;4.852;2023-02-28T06:37:55;10.48;;;5.43;;
70838;SDS011;58464;52.298;4.852;2023-02-28T06:40:21;10.15;;;5.60;;
70838;SDS011;58464;52.298;4.852;2023-02-28T06:42:46;10.68;;;5.75;;
70838;SDS011;58464;52.298;4.852;2023-02-28T06:45:11;12.27;;;6.53;;
70838;SDS011;58464;52.298;4.852;2023-02-28T06:47:37;8.68;;;6.22;;
70838;SDS011;58464;52.298;4.852;2023-02-28T06:50:03;10.75;;;6.40;;
70838;SDS011;58464;52.298;4.852;2023-02-28T06:52:28;11.27;;;6.40;;
70838;SDS011;58464;52.298;4.852;2023-02-28T06:54:54;11.63;;;7.57;;
70838;SDS011;58464;52.298;4.852;2023-02-28T06:57:26;10.38;;;6.43;;
70838;SDS011;58464;52.298;4.852;2023-02-28T06:59:52;8.85;;;5.03;;
70838;SDS011;58464;52.298;4.852;2023-02-28T07:02:17;9.70;;;4.93;;
70838;SDS011;58464;52.298;4.852;2023-02-28T07:04:42;16.17;;;4.70;;
70838;SDS011;58464;52.298;4.852;2023-02-28T07:07:10;9.32;;;4.50;;
70838;SDS011;58464;52.298;4.852;2023-02-28T07:09:35;9.33;;;4.57;;
70838;SDS011;58464;52.298;4.852;2023-02-28T07:12:00;9.60;;;4.57;;
70838;SDS011;58464;52.298;4.852;2023-02-28T07:14:25;19.67;;;5.37;;
70838;SDS011;58464;52.298;4.852;2023-02-28T07:16:51;7.85;;;3.70;;
70838;SDS011;58464;52.298;4.852;2023-02-28T07:19:16;12.23;;;4.00;;
70838;SDS011;58464;52.298;4.852;2023-02-28T07:21:42;12.90;;;4.05;;
70838;SDS011;58464;52.298;4.852;2023-02-28T07:24:07;7.07;;;3.47;;
70838;SDS011;58464;52.298;4.852;2023-02-28T07:26:33;5.15;;;3.40;;
70838;SDS011;58464;52.298;4.852;2023-02-28T07:29:00;5.20;;;3.55;;
70838;SDS011;58464;52.298;4.852;2023-02-28T07:31:26;9.18;;;4.00;;
70838;SDS011;58464;52.298;4.852;2023-02-28T07:33:51;6.90;;;3.83;;
70838;SDS011;58464;52.298;4.852;2023-02-28T07:36:17;5.45;;;3.25;;
70838;SDS011;58464;52.298;4.852;2023-02-28T07:38:46;5.05;;;3.20;;
70838;SDS011;58464;52.298;4.852;2023-02-28T07:41:15;7.70;;;3.70;;
70838;SDS011;58464;52.298;4.852;2023-02-28T07:43:40;6.30;;;3.17;;
70838;SDS011;58464;52.298;4.852;2023-02-28T07:46:07;4.65;;;3.40;;
70838;SDS011;58464;52.298;4.852;2023-02-28T07:48:33;6.88;;;4.00;;
70838;SDS011;58464;52.298;4.852;2023-02-28T07:50:58;5.22;;;3.10;;
70838;SDS011;58464;52.298;4.852;2023-02-28T07:53:24;11.25;;;3.97;;
70838;SDS011;58464;52.298;4.852;2023-02-28T07:55:50;6.80;;;3.60;;
70838;SDS011;58464;52.298;4.852;2023-02-28T07:58:15;5.90;;;3.15;;
70838;SDS011;58464;52.298;4.852;2023-02-28T08:00:40;5.17;;;3.20;;
70838;SDS011;58464;52.298;4.852;2023-02-28T08:03:05;8.30;;;3.47;;
70838;SDS011;58464;52.298;4.852;2023-02-28T08:05:31;6.78;;;3.92;;
70838;SDS011;58464;52.298;4.852;2023-02-28T08:07:56;7.50;;;3.90;;
70838;SDS011;58464;52.298;4.852;2023-02-28T08:10:22;9.77;;;3.25;;
70838;SDS011;58464;52.298;4.852;2023-02-28T08:12:47;5.85;;;3.10;;
70838;SDS011;58464;52.298;4.852;2023-02-28T08:15:12;3.97;;;2.97;;
70838;SDS011;58464;52.298;4.852;2023-02-28T08:17:37;5.15;;;3.22;;
70838;SDS011;58464;52.298;4.852;2023-02-28T08:20:03;5.25;;;3.65;;
70838;SDS011;58464;52.298;4.852;2023-02-28T08:22:29;5.60;;;3.05;;
70838;SDS011;58464;52.298;4.852;2023-02-28T08:24:54;7.43;;;3.65;;
70838;SDS011;58464;52.298;4.852;2023-02-28T08:27:19;7.07;;;3.58;;
70838;SDS011;58464;52.298;4.852;2023-02-28T08:29:45;9.43;;;3.23;;
70838;SDS011;58464;52.298;4.852;2023-02-28T08:32:10;9.25;;;3.75;;
70838;SDS011;58464;52.298;4.852;2023-02-28T08:34:35;6.35;;;3.03;;
70838;SDS011;58464;52.298;4.852;2023-02-28T08:37:00;6.47;;;3.40;;
70838;SDS011;58464;52.298;4.852;2023-02-28T08:39:27;6.78;;;3.60;;
70838;SDS011;58464;52.298;4.852;2023-02-28T08:41:52;5.40;;;3.65;;
70838;SDS011;58464;52.298;4.852;2023-02-28T08:44:19;8.03;;;3.40;;
70838;SDS011;58464;52.298;4.852;2023-02-28T08:46:44;4.90;;;3.13;;
70838;SDS011;58464;52.298;4.852;2023-02-28T08:49:09;11.53;;;3.47;;
70838;SDS011;58464;52.298;4.852;2023-02-28T08:51:35;7.85;;;2.75;;
70838;SDS011;58464;52.298;4.852;2023-02-28T08:54:01;10.57;;;3.25;;
70838;SDS011;58464;52.298;4.852;2023-02-28T08:56:27;11.57;;;3.47;;
70838;SDS011;58464;52.298;4.852;2023-02-28T08:58:53;7.70;;;3.47;;
70838;SDS011;58464;52.298;4.852;2023-02-28T09:01:29;17.38;;;3.50;;
70838;SDS011;58464;52.298;4.852;2023-02-28T09:03:55;7.18;;;3.53;;
70838;SDS011;58464;52.298;4.852;2023-02-28T09:06:21;8.13;;;2.75;;
70838;SDS011;58464;52.298;4.852;2023-02-28T09:08:47;7.35;;;2.70;;
70838;SDS011;58464;52.298;4.852;2023-02-28T09:11:12;7.85;;;3.17;;
70838;SDS011;58464;52.298;4.852;2023-02-28T09:13:38;4.82;;;2.80;;
70838;SDS011;58464;52.298;4.852;2023-02-28T09:16:05;7.10;;;2.92;;
70838;SDS011;58464;52.298;4.852;2023-02-28T09:18:31;6.63;;;2.70;;
70838;SDS011;58464;52.298;4.852;2023-02-28T09:20:56;13.23;;;3.10;;
70838;SDS011;58464;52.298;4.852;2023-02-28T09:23:22;6.00;;;2.83;;
70838;SDS011;58464;52.298;4.852;2023-02-28T09:25:52;8.65;;;2.90;;
70838;SDS011;58464;52.298;4.852;2023-02-28T09:28:17;6.82;;;3.42;;
70838;SDS011;58464;52.298;4.852;2023-02-28T09:30:46;9.18;;;3.22;;
70838;SDS011;58464;52.298;4.852;2023-02-28T09:33:12;6.47;;;3.05;;
70838;SDS011;58464;52.298;4.852;2023-02-28T09:35:38;5.97;;;3.20;;
70838;SDS011;58464;52.298;4.852;2023-02-28T09:38:04;5.47;;;3.00;;
70838;SDS011;58464;52.298;4.852;2023-02-28T09:40:30;8.82;;;2.92;;
70838;SDS011;58464;52.298;4.852;2023-02-28T09:42:56;9.68;;;2.80;;
70838;SDS011;58464;52.298;4.852;2023-02-28T09:45:32;7.85;;;3.13;;
70838;SDS011;58464;52.298;4.852;2023-02-28T09:48:02;8.73;;;2.45;;
70838;SDS011;58464;52.298;4.852;2023-02-28T09:50:36;5.40;;;2.42;;
70838;SDS011;58464;52.298;4.852;2023-02-28T09:53:06;10.35;;;2.40;;
70838;SDS011;58464;52.298;4.852;2023-02-28T09:55:42;6.88;;;3.00;;
70838;SDS011;58464;52.298;4.852;2023-02-28T09:58:14;8.38;;;2.45;;
70838;SDS011;58464;52.298;4.852;2023-02-28T10:00:41;3.92;;;2.28;;
70838;SDS011;58464;52.298;4.852;2023-02-28T10:05:41;4.78;;;2.40;;
70838;SDS011;58464;52.298;4.852;2023-02-28T10:08:15;6.13;;;2.25;;
70838;SDS011;58464;52.298;4.852;2023-02-28T10:10:43;9.70;;;2.50;;
70838;SDS011;58464;52.298;4.852;2023-02-28T10:13:32;6.72;;;2.83;;
70838;SDS011;58464;52.298;4.852;2023-02-28T10:16:05;5.13;;;2.00;;
70838;SDS011;58464;52.298;4.852;2023-02-28T10:18:37;10.30;;;2.53;;
70838;SDS011;58464;52.298;4.852;2023-02-28T10:21:04;6.07;;;2.72;;
70838;SDS011;58464;52.298;4.852;2023-02-28T10:23:36;6.57;;;2.42;;
70838;SDS011;58464;52.298;4.852;2023-02-28T10:26:10;7.07;;;2.70;;
70838;SDS011;58464;52.298;4.852;2023-02-28T10:28:36;11.38;;;2.70;;
70838;SDS011;58464;52.298;4.852;2023-02-28T10:31:01;6.40;;;2.53;;
70838;SDS011;58464;52.298;4.852;2023-02-28T10:33:30;4.85;;;2.28;;
70838;SDS011;58464;52.298;4.852;2023-02-28T10:35:56;5.03;;;2.00;;
70838;SDS011;58464;52.298;4.852;2023-02-28T10:38:24;5.57;;;2.63;;
70838;SDS011;58464;52.298;4.852;2023-02-28T10:40:50;5.78;;;2.00;;
70838;SDS011;58464;52.298;4.852;2023-02-28T10:43:18;3.42;;;1.73;;
70838;SDS011;58464;52.298;4.852;2023-02-28T10:46:01;8.27;;;2.42;;
70838;SDS011;58464;52.298;4.852;2023-02-28T10:48:34;7.65;;;2.38;;
70838;SDS011;58464;52.298;4.852;2023-02-28T10:51:01;5.30;;;2.28;;
70838;SDS011;58464;52.298;4.852;2023-02-28T10:53:48;3.25;;;1.95;;
70838;SDS011;58464;52.298;4.852;2023-02-28T10:56:16;3.67;;;1.63;;
70838;SDS011;58464;52.298;4.852;2023-02-28T11:03:48;8.82;;;1.77;;
70838;SDS011;58464;52.298;4.852;2023-02-28T11:06:18;3.72;;;1.80;;
70838;SDS011;58464;52.298;4.852;2023-02-28T11:08:54;4.80;;;1.60;;
70838;SDS011;58464;52.298;4.852;2023-02-28T11:11:22;7.03;;;1.83;;
70838;SDS011;58464;52.298;4.852;2023-02-28T11:13:50;4.10;;;2.20;;
70838;SDS011;58464;52.298;4.852;2023-02-28T11:16:16;4.20;;;1.92;;
70838;SDS011;58464;52.298;4.852;2023-02-28T11:21:07;3.13;;;1.67;;
70838;SDS011;58464;52.298;4.852;2023-02-28T11:23:33;2.63;;;1.30;;
70838;SDS011;58464;52.298;4.852;2023-02-28T11:26:02;2.78;;;1.55;;
70838;SDS011;58464;52.298;4.852;2023-02-28T11:28:33;2.35;;;1.35;;
70838;SDS011;58464;52.298;4.852;2023-02-28T11:36:03;4.25;;;2.10;;
70838;SDS011;58464;52.298;4.852;2023-02-28T11:38:29;3.65;;;1.27;;
70838;SDS011;58464;52.298;4.852;2023-02-28T11:56:02;10.13;;;1.77;;
70838;SDS011;58464;52.298;4.852;2023-02-28T11:58:40;6.13;;;1.50;;
70838;SDS011;58464;52.298;4.852;2023-02-28T12:06:15;7.30;;;1.80;;
70838;SDS011;58464;52.298;4.852;2023-02-28T12:08:54;3.20;;;1.80;;
70838;SDS011;58464;52.298;4.852;2023-02-28T12:14:13;2.92;;;1.38;;
70838;SDS011;58464;52.298;4.852;2023-02-28T12:19:20;2.03;;;1.27;;
70838;SDS011;58464;52.298;4.852;2023-02-28T12:27:02;3.47;;;1.70;;
70838;SDS011;58464;52.298;4.852;2023-02-28T12:29:42;5.97;;;1.90;;
70838;SDS011;58464;52.298;4.852;2023-02-28T12:32:09;3.25;;;1.70;;
70838;SDS011;58464;52.298;4.852;2023-02-28T12:34:38;4.90;;;1.73;;
70838;SDS011;58464;52.298;4.852;2023-02-28T12:37:11;2.42;;;1.40;;
70838;SDS011;58464;52.298;4.852;2023-02-28T12:39:44;7.20;;;1.90;;
70838;SDS011;58464;52.298;4.852;2023-02-28T12:42:10;4.10;;;1.70;;
70838;SDS011;58464;52.298;4.852;2023-02-28T12:45:01;4.20;;;2.03;;
70838;SDS011;58464;52.298;4.852;2023-02-28T12:47:24;2.47;;;1.65;;
70838;SDS011;58464;52.298;4.852;2023-02-28T12:49:57;4.43;;;1.73;;
70838;SDS011;58464;52.298;4.852;2023-02-28T12:52:25;6.53;;;1.80;;
70838;SDS011;58464;52.298;4.852;2023-02-28T12:54:56;4.55;;;2.20;;
70838;SDS011;58464;52.298;4.852;2023-02-28T12:59:57;3.30;;;1.50;;
70838;SDS011;58464;52.298;4.852;2023-02-28T13:05:02;3.63;;;1.33;;
70838;SDS011;58464;52.298;4.852;2023-02-28T13:09:59;2.17;;;1.30;;
70838;SDS011;58464;52.298;4.852;2023-02-28T13:12:24;1.33;;;1.10;;
70838;SDS011;58464;52.298;4.852;2023-02-28T13:14:51;3.08;;;1.52;;
70838;SDS011;58464;52.298;4.852;2023-02-28T13:17:26;5.63;;;1.70;;
70838;SDS011;58464;52.298;4.852;2023-02-28T13:22:19;4.27;;;1.83;;
70838;SDS011;58464;52.298;4.852;2023-02-28T13:29:42;3.43;;;1.70;;
70838;SDS011;58464;52.298;4.852;2023-02-28T13:34:35;6.15;;;1.80;;
70838;SDS011;58464;52.298;4.852;2023-02-28T13:39:45;4.65;;;1.70;;
70838;SDS011;58464;52.298;4.852;2023-02-28T13:47:31;4.57;;;2.25;;
70838;SDS011;58464;52.298;4.852;2023-02-28T13:52:45;5.43;;;2.05;;
70838;SDS011;58464;52.298;4.852;2023-02-28T14:05:19;4.40;;;1.80;;
70838;SDS011;58464;52.298;4.852;2023-02-28T14:07:50;3.15;;;1.52;;
70838;SDS011;58464;52.298;4.852;2023-02-28T14:10:28;4.30;;;1.80;;
70838;SDS011;58464;52.298;4.852;2023-02-28T14:12:56;2.88;;;1.65;;
70838;SDS011;58464;52.298;4.852;2023-02-28T14:15:27;4.03;;;1.88;;
70838;SDS011;58464;52.298;4.852;2023-02-28T14:17:54;7.68;;;1.83;;
70838;SDS011;58464;52.298;4.852;2023-02-28T14:20:20;3.85;;;2.00;;
70838;SDS011;58464;52.298;4.852;2023-02-28T14:25:32;4.95;;;1.65;;
70838;SDS011;58464;52.298;4.852;2023-02-28T14:28:11;3.42;;;1.75;;
70838;SDS011;58464;52.298;4.852;2023-02-28T14:33:18;3.83;;;1.85;;
70838;SDS011;58464;52.298;4.852;2023-02-28T14:35:54;1.55;;;1.10;;
70838;SDS011;58464;52.298;4.852;2023-02-28T14:38:31;3.60;;;1.70;;
70838;SDS011;58464;52.298;4.852;2023-02-28T14:43:24;4.43;;;1.70;;
70838;SDS011;58464;52.298;4.852;2023-02-28T14:46:08;2.35;;;1.60;;
70838;SDS011;58464;52.298;4.852;2023-02-28T14:48:38;2.47;;;1.55;;
70838;SDS011;58464;52.298;4.852;2023-02-28T14:51:03;4.70;;;2.33;;
70838;SDS011;58464;52.298;4.852;2023-02-28T14:53:30;4.72;;;2.63;;
70838;SDS011;58464;52.298;4.852;2023-02-28T14:55:59;2.20;;;1.35;;
70838;SDS011;58464;52.298;4.852;2023-02-28T14:58:26;4.20;;;2.22;;
70838;SDS011;58464;52.298;4.852;2023-02-28T15:00:59;4.45;;;1.75;;
70838;SDS011;58464;52.298;4.852;2023-02-28T15:03:32;5.32;;;1.80;;
70838;SDS011;58464;52.298;4.852;2023-02-28T15:05:58;3.80;;;1.55;;
70838;SDS011;58464;52.298;4.852;2023-02-28T15:08:24;3.58;;;1.70;;
70838;SDS011;58464;52.298;4.852;2023-02-28T15:10:58;3.60;;;1.90;;
70838;SDS011;58464;52.298;4.852;2023-02-28T15:13:26;3.45;;;1.90;;
70838;SDS011;58464;52.298;4.852;2023-02-28T15:15:56;2.35;;;1.15;;
70838;SDS011;58464;52.298;4.852;2023-02-28T15:18:23;5.00;;;1.75;;
70838;SDS011;58464;52.298;4.852;2023-02-28T15:20:51;3.17;;;1.92;;
70838;SDS011;58464;52.298;4.852;2023-02-28T15:23:17;1.65;;;1.40;;
70838;SDS011;58464;52.298;4.852;2023-02-28T15:25:43;5.75;;;2.03;;
70838;SDS011;58464;52.298;4.852;2023-02-28T15:28:12;6.90;;;2.08;;
70838;SDS011;58464;52.298;4.852;2023-02-28T15:30:49;6.03;;;2.03;;
70838;SDS011;58464;52.298;4.852;2023-02-28T15:33:30;6.57;;;2.60;;
70838;SDS011;58464;52.298;4.852;2023-02-28T15:36:03;6.30;;;2.67;;
70838;SDS011;58464;52.298;4.852;2023-02-28T15:38:29;8.43;;;2.42;;
70838;SDS011;58464;52.298;4.852;2023-02-28T15:40:59;3.25;;;1.80;;
70838;SDS011;58464;52.298;4.852;2023-02-28T15:43:26;3.08;;;1.50;;
70838;SDS011;58464;52.298;4.852;2023-02-28T15:45:57;2.00;;;1.17;;
70838;SDS011;58464;52.298;4.852;2023-02-28T15:50:52;5.28;;;1.90;;
70838;SDS011;58464;52.298;4.852;2023-02-28T15:53:23;2.63;;;1.60;;
70838;SDS011;58464;52.298;4.852;2023-02-28T15:55:53;3.47;;;1.65;;
70838;SDS011;58464;52.298;4.852;2023-02-28T15:58:19;3.10;;;1.77;;
70838;SDS011;58464;52.298;4.852;2023-02-28T16:00:44;1.80;;;1.40;;
70838;SDS011;58464;52.298;4.852;2023-02-28T16:03:32;2.20;;;1.38;;
70838;SDS011;58464;52.298;4.852;2023-02-28T16:08:54;5.57;;;2.20;;
70838;SDS011;58464;52.298;4.852;2023-02-28T16:11:22;2.72;;;1.58;;
70838;SDS011;58464;52.298;4.852;2023-02-28T16:13:49;2.60;;;1.73;;
70838;SDS011;58464;52.298;4.852;2023-02-28T16:16:19;3.97;;;1.75;;
70838;SDS011;58464;52.298;4.852;2023-02-28T16:18:45;2.95;;;1.67;;
70838;SDS011;58464;52.298;4.852;2023-02-28T16:21:10;4.22;;;2.03;;
70838;SDS011;58464;52.298;4.852;2023-02-28T16:23:36;2.40;;;1.23;;
70838;SDS011;58464;52.298;4.852;2023-02-28T16:26:02;5.45;;;2.15;;
70838;SDS011;58464;52.298;4.852;2023-02-28T16:28:29;4.43;;;1.67;;
70838;SDS011;58464;52.298;4.852;2023-02-28T16:30:57;3.42;;;1.98;;
70838;SDS011;58464;52.298;4.852;2023-02-28T16:33:23;4.75;;;2.40;;
70838;SDS011;58464;52.298;4.852;2023-02-28T16:35:49;5.68;;;3.03;;
70838;SDS011;58464;52.298;4.852;2023-02-28T16:38:14;4.15;;;2.10;;
70838;SDS011;58464;52.298;4.852;2023-02-28T16:40:39;8.63;;;2.72;;
70838;SDS011;58464;52.298;4.852;2023-02-28T16:43:09;6.93;;;2.40;;
70838;SDS011;58464;52.298;4.852;2023-02-28T16:45:56;4.03;;;1.98;;
70838;SDS011;58464;52.298;4.852;2023-02-28T16:48:26;4.68;;;2.42;;
70838;SDS011;58464;52.298;4.852;2023-02-28T16:50:51;4.43;;;2.22;;
70838;SDS011;58464;52.298;4.852;2023-02-28T16:53:16;6.85;;;1.83;;